Airfield :
LOGIN :

Register | Disclaimer

   EN    FR    IT 

 










Legend :    VFR   Marginal VFR   IFR   Intensive IFR   Very Intensive IFR
Visi :
Ceiling :
>= 8 km
>= 3000ft
5 to 8 km
1000 to 3000 ft
1500m to 5 km
500 to 1000 ft
800 to 1500m
200 to 500 ft
< 800m
< 200 ft
Symbols :   Thunderstorms  Fog  Heavy snow  Heavy precipitations  Wind > 20 kt
SIGMETs :     Misc.  Thunderstorms  Icing  Turbulence  Mountain Waves  Volcanic Ashes







- Airport Elevation : 614 ft
- IATA code : CRL


EBCI - Charleroi

CURRENT METAR :
  • 172120Z 27007KT 230V320 7000 SCT004 BKN006 00/M00 Q1015 RESHSN TEMPO 1200 SHSN BKN003

EXPIRED METARs :
  • 172050Z 27005KT 230V300 8000 SCT003 BKN008 00/M00 Q1014 RESHSN TEMPO 1200 SHSN BKN003
  • 172020Z 27007KT 8000 BKN005 BKN008 01/M00 Q1014 TEMPO 1200 SHSN BKN003
  • 171950Z 27009KT 230V300 3200 -SHSN SCT004 BKN005 00/M00 Q1014 BECMG 6000 NSW TEMPO 1200 SHSN BKN003
  • 171920Z 27011KT 240V300 9999 -SHSN SCT006 BKN008 01/M00 Q1013 TEMPO 1200 SHSN BKN004
  • 171850Z 28008KT 240V320 9999 SCT006 BKN008 01/M00 Q1012 RESHSN TEMPO 1200 SHSN BKN004

TAF TAF EBCI
Valid from the 17 at 18:00 until the 19 at 00:00 UTC


171720Z 1718/1824 30012KT 9999 SCT008 BKN020
TEMPO 1718/1804 3500 SHRASN SCT008 BKN014CB
PROB30
TEMPO 1718/1803 2500 SHSN BKN005 BKN012TCU
PROB30
TEMPO 1803/1809 3500 BR BKN004
No reported NOTAMs for that airfield.



MET'MAP, your aeronautical weather chart ! - Copyright ORBIFLY December 2007 - Disclaimer

ORBIFLY MET'MAP TEAM :

Programming & Development : Alexandra Zaïnal
Concept & Development : Baudouin d'Aumeries
Co-Development & Prog : Marc-Olivier Méhu
Technical & hardware support : Manuel Goepfert

Contact : metmap@orbifly.com




SOURCES & CREDITS :

   NOAA